createdAt,value
2023-02-10T00:00:39.825Z,40.80
2023-02-10T00:04:42.648Z,45.70
2023-02-10T00:08:48.579Z,49.63
2023-02-10T00:12:53.767Z,49.77
2023-02-10T00:16:57.957Z,36.47
2023-02-10T00:21:07.969Z,47.53
2023-02-10T00:25:10.741Z,37.23
2023-02-10T00:29:15.048Z,48.40
2023-02-10T00:33:18.975Z,48.53
2023-02-10T00:37:21.797Z,52.03
2023-02-10T00:41:26.349Z,43.63
2023-02-10T00:45:30.523Z,44.97
2023-02-10T00:49:33.396Z,54.97
2023-02-10T00:53:36.717Z,62.97
2023-02-10T00:57:39.632Z,52.20
2023-02-10T01:01:43.984Z,61.07
2023-02-10T01:05:47.302Z,41.33
2023-02-10T01:09:52.160Z,52.03
2023-02-10T01:13:54.973Z,48.90
2023-02-10T01:17:59.395Z,46.50
2023-02-10T01:22:02.271Z,41.90
2023-02-10T01:26:05.664Z,51.50
2023-02-10T01:30:09.459Z,43.67
2023-02-10T01:34:13.689Z,42.67
2023-02-10T01:38:16.563Z,43.03
2023-02-10T01:42:19.398Z,37.77
2023-02-10T01:46:22.426Z,39.90
2023-02-10T01:50:31.795Z,38.27
2023-02-10T01:54:37.512Z,34.13
2023-02-10T01:58:42.418Z,42.03
2023-02-10T02:02:46.400Z,36.33
2023-02-10T02:06:52.320Z,38.60
2023-02-10T02:11:05.438Z,34.87
2023-02-10T02:15:16.740Z,38.20
2023-02-10T02:20:16.852Z,41.40
2023-02-10T02:24:37.482Z,35.33
2023-02-10T02:28:50.657Z,36.53
2023-02-10T02:32:59.345Z,37.13
2023-02-10T02:37:06.661Z,35.50
2023-02-10T02:41:10.045Z,36.43
2023-02-10T02:45:16.534Z,32.80
2023-02-10T02:49:29.021Z,40.00
2023-02-10T02:53:40.261Z,39.73
2023-02-10T02:57:49.806Z,35.40
2023-02-10T03:01:57.821Z,36.07
2023-02-10T03:06:02.056Z,40.20
2023-02-10T03:10:06.074Z,45.43
2023-02-10T03:14:08.968Z,38.57
2023-02-10T03:18:11.758Z,41.60
2023-02-10T03:22:15.881Z,54.60
2023-02-10T03:26:18.677Z,51.70
2023-02-10T03:30:22.942Z,68.40
2023-02-10T03:34:25.823Z,51.50
2023-02-10T03:38:30.808Z,89.43
2023-02-10T03:42:33.624Z,62.20
2023-02-10T03:46:37.720Z,65.37
2023-02-10T03:50:41.419Z,48.30
2023-02-10T03:54:45.813Z,69.20
2023-02-10T03:58:48.718Z,96.83
2023-02-10T04:02:51.541Z,58.03
2023-02-10T04:06:54.350Z,69.10
2023-02-10T04:10:58.582Z,92.07
2023-02-10T04:15:01.525Z,92.10
2023-02-10T04:19:04.566Z,83.10
2023-02-10T04:23:07.471Z,96.03
2023-02-10T04:27:11.642Z,78.30
2023-02-10T04:31:14.590Z,96.27
2023-02-10T04:35:17.588Z,97.03
2023-02-10T04:39:20.470Z,79.60
2023-02-10T04:43:24.927Z,80.23
2023-02-10T04:47:29.457Z,139.60
2023-02-10T04:51:32.345Z,103.23
2023-02-10T04:55:35.831Z,110.63
2023-02-10T04:59:40.154Z,142.97
2023-02-10T05:03:43.042Z,113.33
2023-02-10T05:07:46.084Z,71.03
2023-02-10T05:11:48.951Z,98.40
2023-02-10T05:15:53.179Z,126.20
2023-02-10T05:19:55.959Z,87.50
2023-02-10T05:23:59.698Z,81.17
2023-02-10T05:28:03.276Z,130.00
2023-02-10T05:32:07.625Z,83.17
2023-02-10T05:36:10.619Z,92.37
2023-02-10T05:40:13.550Z,137.13
2023-02-10T05:44:16.454Z,108.83
2023-02-10T05:48:20.744Z,91.13
2023-02-10T05:52:23.551Z,92.40
2023-02-10T05:56:26.642Z,98.93
2023-02-10T06:00:29.448Z,98.90
2023-02-10T06:04:34.158Z,111.43
2023-02-10T06:08:37.038Z,78.53
2023-02-10T06:12:39.902Z,97.10
2023-02-10T06:16:42.851Z,88.13
2023-02-10T06:20:49.122Z,119.20
2023-02-10T06:24:51.929Z,85.17
2023-02-10T06:28:54.753Z,80.53
2023-02-10T06:32:57.577Z,67.50
2023-02-10T06:37:01.751Z,84.20
2023-02-10T06:41:05.121Z,87.27
2023-02-10T06:45:09.769Z,75.63
2023-02-10T06:49:12.581Z,89.10
2023-02-10T06:53:16.827Z,80.47
2023-02-10T06:57:19.700Z,79.27
2023-02-10T07:01:22.579Z,65.47
2023-02-10T07:05:26.031Z,83.33
2023-02-10T07:09:30.416Z,76.10
2023-02-10T07:13:33.244Z,61.27
2023-02-10T07:17:37.487Z,61.00
2023-02-10T07:21:40.314Z,70.63
2023-02-10T07:25:44.539Z,62.50
2023-02-10T07:29:48.126Z,61.33
2023-02-10T07:33:50.937Z,68.47
2023-02-10T07:37:53.775Z,58.10
2023-02-10T07:41:57.946Z,59.50
2023-02-10T07:46:10.629Z,74.80
2023-02-10T07:50:13.483Z,57.00
2023-02-10T07:54:16.388Z,62.97
2023-02-10T07:58:20.610Z,59.37
2023-02-10T08:02:23.396Z,69.60
2023-02-10T08:06:27.916Z,70.23
2023-02-10T08:10:30.752Z,60.80
2023-02-10T08:14:35.626Z,76.27
2023-02-10T08:18:38.481Z,70.67
2023-02-10T08:22:41.462Z,68.33
2023-02-10T08:26:44.848Z,76.70
2023-02-10T08:30:49.476Z,75.63
2023-02-10T08:34:54.470Z,79.10
2023-02-10T08:38:59.122Z,92.13
2023-02-10T08:43:02.271Z,92.10
2023-02-10T08:47:07.922Z,91.43
2023-02-10T08:51:14.074Z,92.60
2023-02-10T08:55:16.937Z,102.20
2023-02-10T08:59:19.766Z,80.80
2023-02-10T09:03:24.810Z,85.27
2023-02-10T09:07:27.665Z,84.43
2023-02-10T09:11:30.538Z,77.13
2023-02-10T09:15:33.353Z,69.83
2023-02-10T09:19:37.907Z,67.43
2023-02-10T09:23:40.843Z,79.17
2023-02-10T09:27:43.677Z,69.50
2023-02-10T09:31:46.718Z,67.70
2023-02-10T09:35:51.203Z,68.13
2023-02-10T09:39:54.187Z,69.13
2023-02-10T09:44:11.072Z,66.47
2023-02-10T09:48:36.157Z,64.70
2023-02-10T09:52:55.204Z,63.43
2023-02-10T09:56:58.318Z,59.87
2023-02-10T10:01:06.070Z,54.50
2023-02-10T10:05:18.303Z,60.03
2023-02-10T10:09:34.795Z,58.00
2023-02-10T10:13:37.709Z,61.47
2023-02-10T10:17:56.936Z,53.80
2023-02-10T10:22:14.162Z,48.90
2023-02-10T10:26:37.853Z,54.17
2023-02-10T10:30:47.214Z,49.80
2023-02-10T10:34:53.793Z,48.33
2023-02-10T10:39:02.102Z,54.07
2023-02-10T10:43:06.588Z,47.43
2023-02-10T10:47:16.004Z,47.77
2023-02-10T10:51:19.541Z,43.97
2023-02-10T10:55:31.733Z,40.73
2023-02-10T10:59:43.018Z,46.37
2023-02-10T11:03:45.962Z,43.23
2023-02-10T11:07:50.192Z,35.33
2023-02-10T11:11:55.290Z,44.00
2023-02-10T11:16:06.922Z,40.27
2023-02-10T11:20:24.653Z,38.70
2023-02-10T11:24:29.711Z,42.20
2023-02-10T11:28:34.047Z,38.67
2023-02-10T11:32:39.673Z,37.50
2023-02-10T11:36:45.525Z,41.13
2023-02-10T11:40:53.726Z,40.30
2023-02-10T11:44:58.805Z,38.77
2023-02-10T11:49:06.144Z,40.00
2023-02-10T11:53:20.730Z,39.73
2023-02-10T11:57:50.324Z,38.57
2023-02-10T12:01:56.591Z,39.70
2023-02-10T12:06:09.727Z,37.67
2023-02-10T12:10:21.362Z,38.13
2023-02-10T12:14:49.353Z,43.00
2023-02-10T12:19:03.688Z,40.73
2023-02-10T12:23:39.035Z,39.30
2023-02-10T12:27:51.733Z,40.13
2023-02-10T12:32:04.796Z,38.77
2023-02-10T12:36:16.516Z,40.00
2023-02-10T12:40:50.300Z,41.77
2023-02-10T12:45:01.222Z,44.37
2023-02-10T12:49:19.569Z,39.03
2023-02-10T12:53:27.236Z,45.93
2023-02-10T12:57:40.580Z,46.67
2023-02-10T13:01:48.411Z,40.43
2023-02-10T13:05:57.369Z,40.00
2023-02-10T13:10:10.126Z,44.13
2023-02-10T13:14:18.121Z,38.47
2023-02-10T13:18:23.030Z,39.13
2023-02-10T13:22:42.140Z,37.83
2023-02-10T13:26:57.743Z,42.53
2023-02-10T13:31:14.196Z,39.23
2023-02-10T13:35:21.515Z,41.60
2023-02-10T13:39:29.769Z,40.83
2023-02-10T13:43:35.054Z,43.00
2023-02-10T13:47:43.321Z,36.63
2023-02-10T13:51:46.998Z,42.97
2023-02-10T13:55:49.842Z,49.63
2023-02-10T13:59:52.662Z,44.47
2023-02-10T14:03:58.424Z,42.80
2023-02-10T14:08:01.440Z,45.53
2023-02-10T14:12:07.421Z,43.97
2023-02-10T14:16:31.499Z,46.30
2023-02-10T14:20:39.171Z,42.97
2023-02-10T14:24:50.883Z,49.20
2023-02-10T14:28:56.933Z,43.30
2023-02-10T14:33:00.467Z,41.27
2023-02-10T14:37:16.960Z,47.30
2023-02-10T14:41:21.396Z,41.07
2023-02-10T14:45:27.230Z,44.93
2023-02-10T14:49:33.989Z,43.47
2023-02-10T14:53:42.242Z,46.87
2023-02-10T14:57:46.138Z,45.27
2023-02-10T15:01:49.047Z,43.57
2023-02-10T15:05:56.220Z,42.10
2023-02-10T15:10:06.959Z,45.83
2023-02-10T15:14:16.705Z,47.80
2023-02-10T15:18:22.398Z,47.83
2023-02-10T15:22:36.114Z,46.07
2023-02-10T15:26:41.733Z,51.00
2023-02-10T15:30:58.289Z,47.63
2023-02-10T15:35:07.714Z,48.23
2023-02-10T15:39:22.266Z,50.37
2023-02-10T15:43:29.162Z,41.20
2023-02-10T15:47:47.222Z,45.27
2023-02-10T15:51:53.236Z,38.13
2023-02-10T15:55:56.645Z,38.30
2023-02-10T16:00:01.059Z,41.20
2023-02-10T16:04:05.991Z,42.17
2023-02-10T16:08:20.714Z,38.20
2023-02-10T16:12:25.448Z,38.50
2023-02-10T16:16:30.011Z,40.00
2023-02-10T16:20:34.603Z,40.03
2023-02-10T16:24:38.220Z,38.67
2023-02-10T16:28:41.211Z,38.27
2023-02-10T16:32:46.136Z,31.53
2023-02-10T16:36:49.105Z,30.53
2023-02-10T16:40:52.165Z,29.83
2023-02-10T16:44:55.099Z,35.07
2023-02-10T16:48:59.422Z,38.07
2023-02-10T16:53:04.764Z,44.33
2023-02-10T16:57:08.729Z,52.50
2023-02-10T17:01:11.657Z,49.87
2023-02-10T17:05:17.246Z,57.60
2023-02-10T17:09:22.031Z,54.60
2023-02-10T17:13:24.917Z,50.50
2023-02-10T17:17:27.978Z,56.17
2023-02-10T17:21:34.900Z,57.87
2023-02-10T17:26:05.173Z,53.20
2023-02-10T17:30:09.365Z,59.97
2023-02-10T17:34:14.063Z,53.63
2023-02-10T17:38:33.267Z,58.13
2023-02-10T17:42:36.302Z,56.33
2023-02-10T17:46:39.352Z,61.50
2023-02-10T17:50:42.320Z,56.90
2023-02-10T17:54:46.742Z,61.80
2023-02-10T17:58:50.431Z,58.40
2023-02-10T18:02:54.059Z,61.30
2023-02-10T18:06:57.341Z,53.50
2023-02-10T18:11:01.502Z,52.40
2023-02-10T18:15:05.060Z,57.10
2023-02-10T18:19:08.838Z,58.40
2023-02-10T18:23:12.357Z,56.80
2023-02-10T18:27:16.963Z,48.30
2023-02-10T18:31:20.938Z,56.40
2023-02-10T18:35:24.167Z,50.43
2023-02-10T18:39:27.146Z,42.63
2023-02-10T18:43:32.158Z,51.10
2023-02-10T18:47:35.312Z,54.07
2023-02-10T18:51:38.267Z,48.77
2023-02-10T18:55:44.498Z,45.60
2023-02-10T18:59:48.749Z,55.40
2023-02-10T19:03:53.546Z,47.20
2023-02-10T19:08:02.475Z,52.93
2023-02-10T19:12:05.590Z,50.20
2023-02-10T19:16:12.662Z,51.80
2023-02-10T19:20:17.219Z,47.57
2023-02-10T19:24:20.470Z,48.57
2023-02-10T19:28:23.683Z,50.20
2023-02-10T19:32:28.067Z,47.40
2023-02-10T19:36:31.259Z,50.43
2023-02-10T19:40:35.008Z,47.20
2023-02-10T19:44:38.167Z,50.50
2023-02-10T19:48:44.731Z,52.50
2023-02-10T19:52:47.827Z,49.27
2023-02-10T19:56:50.897Z,49.43
2023-02-10T20:01:00.332Z,52.47
2023-02-10T20:05:05.095Z,58.93
2023-02-10T20:09:09.642Z,57.07
2023-02-10T20:13:15.999Z,52.27
2023-02-10T20:17:23.952Z,55.50
2023-02-10T20:21:29.538Z,53.63
2023-02-10T20:25:32.652Z,53.30
2023-02-10T20:29:36.592Z,60.17
2023-02-10T20:33:39.557Z,56.07
2023-02-10T20:37:44.547Z,58.57
2023-02-10T20:41:47.767Z,58.20
2023-02-10T20:45:50.944Z,56.47
2023-02-10T20:49:54.048Z,59.00
2023-02-10T20:53:58.530Z,58.87
2023-02-10T20:58:01.560Z,64.27
2023-02-10T21:02:05.406Z,60.87
2023-02-10T21:06:11.927Z,59.20
2023-02-10T21:10:20.127Z,68.27
2023-02-10T21:14:23.979Z,63.83
2023-02-10T21:18:27.380Z,63.77
2023-02-10T21:22:32.854Z,65.50
2023-02-10T21:26:38.065Z,60.70
2023-02-10T21:30:46.607Z,63.43
2023-02-10T21:34:50.701Z,59.97
2023-02-10T21:38:55.757Z,62.67
2023-02-10T21:43:00.149Z,62.00
2023-02-10T21:47:06.037Z,69.50
2023-02-10T21:51:09.057Z,71.13
2023-02-10T21:55:12.238Z,65.67
2023-02-10T21:59:22.364Z,63.97
2023-02-10T22:03:33.580Z,64.53
2023-02-10T22:07:39.711Z,66.47
2023-02-10T22:11:42.550Z,70.00
2023-02-10T22:15:53.454Z,58.03
2023-02-10T22:19:56.438Z,67.17
2023-02-10T22:23:59.732Z,65.40
2023-02-10T22:28:03.121Z,72.30
2023-02-10T22:32:07.491Z,64.43
2023-02-10T22:36:13.031Z,70.00
2023-02-10T22:40:17.692Z,68.37
2023-02-10T22:44:20.605Z,68.37
2023-02-10T22:48:24.924Z,69.07
2023-02-10T22:52:28.110Z,69.77
2023-02-10T22:56:33.505Z,74.30
2023-02-10T23:00:40.370Z,64.37
2023-02-10T23:04:45.598Z,75.80
2023-02-10T23:08:49.023Z,69.10
2023-02-10T23:12:52.081Z,65.37
2023-02-10T23:16:57.024Z,70.73
2023-02-10T23:21:01.582Z,63.17
2023-02-10T23:25:05.529Z,67.30
2023-02-10T23:29:11.622Z,67.07
2023-02-10T23:33:14.781Z,65.17
2023-02-10T23:37:19.475Z,70.10
2023-02-10T23:41:23.031Z,68.53
2023-02-10T23:45:26.192Z,61.43
2023-02-10T23:49:30.176Z,61.23
2023-02-10T23:53:36.647Z,66.00
2023-02-10T23:57:45.971Z,66.07
